Wabek, North Dakota
Current Conditions -  °F | °C
As of 3:35 AM on Friday 24 Oct 2014 (Local Time) from K08D Reporting Station
NA  
Wind Chill: 41°   Ceiling: NA
Heat Index: 46°   Visibility: 10mi
Dew Point: 36°   Wind: 10mph
Humidity: 66%   Direction: 270°W
Pressure: 29.78"   Gusts: NA
Location:  48.0227°N, 101.961°W
Report Text: K08D 240835Z AUTO 27009KT 10SM 08/02 A2978 RMK AO2
Loading
Personal Weather Stations






























Interactive Weather Map
Tropical Storm Tracking
New forecast layout! Learn more

10-Day Weather Forecast

Advertisements
Track Severe Weather on mobile